Time;durP1;ratioP1;P1;durP2;ratioP2;P2;SDS_P1;SDS_P2;PMS_P1;PMS_P2;Temp;Humidity;BMP_temperature;BMP_pressure;BME280_temperature;BME280_humidity;BME280_pressure;Samples;Min_cycle;Max_cycle;Signal;HPM_P1;HPM_P2
2021/10/03 00:02:02;;;;;;;5.10;3.07;;;;;;;17.10;66.40;95869.25;5072659;28;20227;-70
2021/10/03 00:04:31;;;;;;;5.87;2.70;;;;;;;17.07;66.58;95871.69;5059262;28;20228;-70
2021/10/03 00:06:58;;;;;;;5.00;3.20;;;;;;;16.99;66.96;95867.84;5072992;28;20217;-70
2021/10/03 00:09:26;;;;;;;3.70;2.93;;;;;;;17.18;66.35;95873.88;5072655;28;20347;-70
2021/10/03 00:11:52;;;;;;;3.03;2.67;;;;;;;17.11;66.41;95868.16;5054343;28;20654;-70
2021/10/03 00:14:20;;;;;;;3.20;2.90;;;;;;;16.99;66.71;95870.50;5073113;28;20482;-70
2021/10/03 00:16:47;;;;;;;3.87;3.20;;;;;;;16.89;67.25;95860.84;5054994;28;20200;-70
2021/10/03 00:19:15;;;;;;;4.43;3.10;;;;;;;16.93;67.07;95867.16;5072785;28;20665;-70
2021/10/03 00:21:41;;;;;;;4.70;2.87;;;;;;;16.93;67.23;95866.34;5072818;28;20185;-70
2021/10/03 00:24:07;;;;;;;3.20;2.90;;;;;;;16.85;67.44;95859.06;5072428;28;20181;-70
2021/10/03 00:26:32;;;;;;;3.80;3.17;;;;;;;16.92;67.15;95862.91;5072886;28;20324;-69
2021/10/03 00:28:57;;;;;;;3.47;3.10;;;;;;;16.82;67.51;95864.94;5072997;28;20188;-70
2021/10/03 00:31:23;;;;;;;5.30;2.90;;;;;;;16.81;67.43;95876.59;5054511;28;20181;-70
2021/10/03 00:33:48;;;;;;;3.83;2.97;;;;;;;16.77;67.43;95872.97;5072018;28;20174;-70
2021/10/03 00:36:14;;;;;;;3.87;3.23;;;;;;;16.72;67.68;95878.34;5072397;28;20207;-70
2021/10/03 00:38:39;;;;;;;3.20;2.83;;;;;;;16.77;67.49;95879.03;5054096;28;20195;-70
2021/10/03 00:41:05;;;;;;;3.90;2.97;;;;;;;16.86;66.32;95879.97;5072455;28;20196;-70
2021/10/03 00:43:30;;;;;;;2.97;2.67;;;;;;;16.93;65.68;95883.03;5072355;28;20185;-70
2021/10/03 00:45:55;;;;;;;3.20;2.70;;;;;;;16.94;65.19;95876.63;5071858;28;20622;-70
2021/10/03 00:48:21;;;;;;;3.30;2.70;;;;;;;16.86;65.16;95879.16;5072473;28;20207;-70
2021/10/03 00:50:47;;;;;;;3.07;2.77;;;;;;;16.81;65.29;95879.25;5072189;28;20490;-70
2021/10/03 00:53:14;;;;;;;3.57;2.60;;;;;;;16.84;64.91;95873.38;5072320;28;20273;-70
2021/10/03 00:55:41;;;;;;;3.77;2.90;;;;;;;16.89;64.30;95866.13;5071923;28;20236;-70
2021/10/03 00:58:08;;;;;;;3.13;2.83;;;;;;;16.97;63.97;95867.34;5072404;28;20185;-69
2021/10/03 01:00:36;;;;;;;2.73;2.53;;;;;;;16.98;64.22;95864.41;5072520;28;20195;-70
2021/10/03 01:03:06;;;;;;;2.83;2.63;;;;;;;17.10;63.90;95871.91;5071856;28;20181;-70
2021/10/03 01:05:33;;;;;;;3.87;2.80;;;;;;;17.02;64.41;95867.25;5071815;28;20189;-69
2021/10/03 01:07:59;;;;;;;3.50;3.13;;;;;;;16.97;64.70;95867.34;5072209;28;20209;-70
2021/10/03 01:10:26;;;;;;;3.77;3.00;;;;;;;16.99;64.63;95863.34;5072385;28;20221;-70
2021/10/03 01:13:02;;;;;;;2.70;2.50;;;;;;;17.05;64.81;95848.16;5071761;28;20178;-70
2021/10/03 01:15:28;;;;;;;3.30;2.90;;;;;;;17.04;64.69;95843.94;5072073;28;20197;-70
2021/10/03 01:17:54;;;;;;;3.50;2.70;;;;;;;17.15;64.60;95847.19;5071968;28;20276;-69
2021/10/03 01:20:19;;;;;;;3.40;3.10;;;;;;;17.03;65.14;95829.13;5072013;28;20655;-70
2021/10/03 01:22:45;;;;;;;3.00;2.70;;;;;;;17.02;65.09;95828.34;5071969;28;20188;-70
2021/10/03 01:25:11;;;;;;;3.40;3.00;;;;;;;17.01;65.16;95826.75;5072018;28;20225;-70
2021/10/03 01:27:37;;;;;;;2.87;2.63;;;;;;;16.94;65.74;95830.88;5054382;28;20189;-70
2021/10/03 01:30:06;;;;;;;5.13;3.20;;;;;;;16.92;65.64;95817.91;5072315;28;20224;-70
2021/10/03 01:32:32;;;;;;;3.57;3.27;;;;;;;17.09;65.20;95820.03;5072177;28;20185;-69
2021/10/03 01:34:57;;;;;;;3.40;2.90;;;;;;;16.95;65.75;95821.84;5071395;28;20189;-70
2021/10/03 01:37:24;;;;;;;4.23;3.40;;;;;;;16.89;65.92;95818.47;5066566;28;20593;-70
2021/10/03 01:39:50;;;;;;;3.33;3.03;;;;;;;16.97;65.89;95817.84;5069373;28;20196;-70
2021/10/03 01:42:16;;;;;;;3.70;2.90;;;;;;;16.91;65.87;95823.50;5072032;28;20185;-70
2021/10/03 01:44:41;;;;;;;3.80;3.20;;;;;;;16.94;65.94;95823.69;5055073;28;20702;-70
2021/10/03 01:47:07;;;;;;;2.80;2.60;;;;;;;17.06;65.25;95825.88;5075424;28;20189;-70
2021/10/03 01:49:32;;;;;;;3.30;3.00;;;;;;;17.06;65.17;95820.59;5075491;28;20193;-69
2021/10/03 01:51:58;;;;;;;3.30;3.00;;;;;;;17.04;65.19;95812.97;5075338;28;20189;-70
2021/10/03 01:54:23;;;;;;;3.50;3.20;;;;;;;17.12;64.72;95808.03;5057507;28;20189;-70
2021/10/03 01:56:49;;;;;;;2.70;2.50;;;;;;;17.21;64.39;95803.66;5075239;28;20197;-71
2021/10/03 01:59:16;;;;;;;2.90;2.70;;;;;;;17.19;64.24;95811.09;5075256;28;20264;-70
2021/10/03 02:01:43;;;;;;;4.43;2.80;;;;;;;17.10;64.71;95800.41;5057154;28;20177;-70
2021/10/03 02:04:20;;;;;;;2.80;2.60;;;;;;;16.95;65.21;95795.34;5056974;28;20182;-70
2021/10/03 02:06:49;;;;;;;4.20;2.90;;;;;;;16.95;65.41;95792.72;5075672;28;20666;-70
2021/10/03 02:09:16;;;;;;;4.67;3.03;;;;;;;17.16;64.56;95787.88;5067728;28;20245;-70
2021/10/03 02:11:46;;;;;;;5.33;2.83;;;;;;;17.14;64.78;95788.16;5074298;28;20182;-70
2021/10/03 02:14:13;;;;;;;3.53;2.87;;;;;;;17.11;64.87;95785.31;5074939;28;20181;-70
2021/10/03 02:16:38;;;;;;;3.40;3.10;;;;;;;17.04;65.19;95777.75;5075133;28;20303;-70
2021/10/03 02:19:04;;;;;;;4.23;3.10;;;;;;;16.89;65.75;95772.69;5075016;28;20252;-70
2021/10/03 02:21:30;;;;;;;3.70;2.90;;;;;;;16.89;65.71;95767.41;5074512;28;20193;-70
2021/10/03 02:23:56;;;;;;;3.03;2.73;;;;;;;16.78;66.29;95773.94;5075075;28;20258;-70
2021/10/03 02:26:21;;;;;;;3.60;2.80;;;;;;;16.66;66.84;95785.00;5074702;28;20641;-70
2021/10/03 02:28:47;;;;;;;5.23;3.10;;;;;;;16.80;66.23;95777.09;5074711;28;20189;-70
2021/10/03 02:31:13;;;;;;;4.47;3.17;;;;;;;16.66;66.94;95774.44;5074781;28;20207;-70
2021/10/03 02:33:42;;;;;;;3.47;3.10;;;;;;;16.59;67.16;95779.28;5074768;28;20186;-70
2021/10/03 02:36:08;;;;;;;3.37;2.90;;;;;;;16.55;67.12;95771.09;5074452;28;20774;-70
2021/10/03 02:38:35;;;;;;;3.40;3.10;;;;;;;16.58;66.71;95762.59;5073873;28;20189;-70
2021/10/03 02:41:03;;;;;;;3.40;2.80;;;;;;;16.84;65.54;95759.56;5074878;28;20224;-70
2021/10/03 02:43:32;;;;;;;3.93;3.20;;;;;;;16.86;65.55;95754.75;5074697;28;20219;-70
2021/10/03 02:45:59;;;;;;;3.10;2.80;;;;;;;16.70;65.93;95748.16;5074000;28;20197;-70
2021/10/03 02:48:26;;;;;;;3.10;2.80;;;;;;;16.76;65.55;95749.66;5074686;28;20181;-71
2021/10/03 02:50:52;;;;;;;3.10;2.80;;;;;;;16.64;65.79;95742.16;5074221;28;20193;-69
2021/10/03 02:53:21;;;;;;;2.70;2.50;;;;;;;16.77;64.01;95744.06;5056537;28;20181;-70
2021/10/03 02:55:46;;;;;;;2.77;2.57;;;;;;;16.75;63.82;95732.97;5074290;28;20209;-69
2021/10/03 02:58:12;;;;;;;2.63;2.43;;;;;;;16.75;63.40;95732.19;5074700;28;20264;-70
2021/10/03 03:00:39;;;;;;;2.73;2.53;;;;;;;16.76;62.56;95733.78;5074339;28;20193;-70
2021/10/03 03:03:05;;;;;;;3.27;2.87;;;;;;;16.77;62.51;95730.06;5074202;28;20192;-70
2021/10/03 03:05:31;;;;;;;2.40;2.20;;;;;;;16.80;62.20;95732.88;5056361;28;20193;-70
2021/10/03 03:07:56;;;;;;;3.63;2.87;;;;;;;16.89;61.37;95728.47;5073959;28;20260;-70
2021/10/03 03:10:22;;;;;;;3.37;2.93;;;;;;;16.84;61.69;95725.13;5073955;28;20633;-71
2021/10/03 03:12:47;;;;;;;2.80;2.60;;;;;;;16.78;62.33;95724.44;5073609;28;20197;-70
2021/10/03 03:15:12;;;;;;;2.90;2.70;;;;;;;16.76;62.33;95736.41;5074095;28;20185;-70
2021/10/03 03:17:38;;;;;;;3.27;2.93;;;;;;;16.82;62.20;95727.31;5056117;28;20659;-69
2021/10/03 03:20:05;;;;;;;3.00;2.80;;;;;;;16.80;62.29;95726.81;5073855;28;20260;-69
2021/10/03 03:22:31;;;;;;;3.07;2.57;;;;;;;16.72;62.50;95720.31;5056049;28;20185;-70
2021/10/03 03:24:57;;;;;;;2.80;2.60;;;;;;;16.66;62.61;95724.16;5055778;28;20599;-70
2021/10/03 03:27:22;;;;;;;3.33;2.60;;;;;;;16.66;61.75;95721.50;5073814;28;20231;-70
2021/10/03 03:29:48;;;;;;;4.43;2.50;;;;;;;16.63;61.95;95714.91;5073441;28;20272;-70
2021/10/03 03:32:13;;;;;;;3.53;2.83;;;;;;;16.60;62.12;95727.97;5073771;28;20189;-70
2021/10/03 03:34:39;;;;;;;2.90;2.50;;;;;;;16.52;62.16;95713.50;5073432;28;20183;-69
2021/10/03 03:37:04;;;;;;;3.60;2.70;;;;;;;16.70;61.83;95725.13;5065116;28;20197;-69
2021/10/03 03:39:30;;;;;;;3.20;2.90;;;;;;;16.52;61.77;95710.84;5073791;28;20542;-71
2021/10/03 03:41:56;;;;;;;3.43;3.00;;;;;;;16.46;61.74;95714.66;5072809;28;20588;-70
2021/10/03 03:44:21;;;;;;;3.10;2.80;;;;;;;16.61;61.26;95706.47;5055150;28;20178;-70
2021/10/03 03:46:47;;;;;;;3.03;2.70;;;;;;;16.74;60.22;95701.50;5073557;28;20197;-70
2021/10/03 03:49:12;;;;;;;2.90;2.57;;;;;;;16.63;60.64;95700.91;5055441;28;20188;-69
2021/10/03 03:51:38;;;;;;;3.13;2.83;;;;;;;16.49;60.67;95706.16;5073304;28;20224;-69
2021/10/03 03:54:03;;;;;;;2.80;2.30;;;;;;;16.75;59.54;95703.09;5072536;28;20219;-70
2021/10/03 03:56:29;;;;;;;2.50;2.30;;;;;;;16.80;59.11;95705.63;5073017;28;20198;-70
2021/10/03 03:58:54;;;;;;;3.27;2.33;;;;;;;16.72;59.19;95709.72;5072752;28;20190;-70
2021/10/03 04:01:20;;;;;;;2.77;2.57;;;;;;;16.68;59.41;95705.31;5073039;28;20224;-70
2021/10/03 04:03:46;;;;;;;2.30;2.10;;;;;;;16.81;58.93;95707.22;5072840;28;20193;-70
2021/10/03 04:06:11;;;;;;;2.43;2.23;;;;;;;16.67;58.99;95709.03;5072711;28;20684;-69
2021/10/03 04:08:37;;;;;;;2.80;2.60;;;;;;;16.69;58.32;95701.59;5072172;28;20193;-70
2021/10/03 04:11:02;;;;;;;2.60;2.40;;;;;;;16.77;58.12;95700.94;5053933;28;20261;-70
2021/10/03 04:13:27;;;;;;;3.30;2.67;;;;;;;16.63;58.84;95699.03;5072662;28;20189;-70
2021/10/03 04:15:53;;;;;;;3.37;2.33;;;;;;;16.49;58.93;95715.94;5054891;28;20687;-70
2021/10/03 04:18:18;;;;;;;2.57;2.37;;;;;;;16.56;58.14;95695.16;5072542;28;20189;-70
2021/10/03 04:20:44;;;;;;;2.60;2.40;;;;;;;16.65;57.53;95687.41;5072986;28;20181;-70
2021/10/03 04:23:09;;;;;;;2.40;2.20;;;;;;;16.77;56.51;95696.44;5072925;28;20184;-70
2021/10/03 04:25:35;;;;;;;3.77;2.00;;;;;;;16.83;56.29;95689.19;5072992;28;20182;-70
2021/10/03 04:28:01;;;;;;;2.40;2.20;;;;;;;16.80;56.75;95705.63;5072458;28;20264;-70
2021/10/03 04:30:27;;;;;;;2.43;2.10;;;;;;;16.76;56.63;95712.59;5072523;28;20630;-70
2021/10/03 04:32:53;;;;;;;2.37;2.10;;;;;;;16.91;55.09;95701.72;5072037;28;20693;-70
2021/10/03 04:35:18;;;;;;;2.30;2.10;;;;;;;16.71;54.87;95687.03;5054271;28;20212;-69
2021/10/03 04:37:44;;;;;;;2.07;1.97;;;;;;;16.79;55.02;95685.53;5072787;28;20590;-70
2021/10/03 04:40:10;;;;;;;2.07;1.93;;;;;;;16.73;55.65;95678.75;5072785;28;20268;-70
2021/10/03 04:42:35;;;;;;;2.30;2.10;;;;;;;16.84;55.76;95682.78;5054712;28;20223;-70
2021/10/03 04:45:01;;;;;;;2.10;1.90;;;;;;;16.84;55.01;95688.88;5072036;28;20181;-70
2021/10/03 04:47:26;;;;;;;2.30;2.10;;;;;;;16.87;54.52;95683.00;5072952;28;20287;-70
2021/10/03 04:49:54;;;;;;;1.83;1.73;;;;;;;16.91;54.20;95675.25;5072176;28;20267;-70
2021/10/03 04:52:21;;;;;;;2.37;2.00;;;;;;;16.84;54.72;95677.50;5072404;28;20648;-70
2021/10/03 04:54:47;;;;;;;1.93;1.83;;;;;;;16.96;54.39;95693.69;5072521;28;20659;-70
2021/10/03 04:57:12;;;;;;;1.80;1.70;;;;;;;16.99;53.64;95664.78;5072170;28;20206;-70
2021/10/03 04:59:38;;;;;;;2.03;1.93;;;;;;;17.12;53.46;95667.69;5054440;28;20184;-70
2021/10/03 05:02:04;;;;;;;1.73;1.63;;;;;;;17.13;53.27;95672.72;5053724;28;20177;-71
2021/10/03 05:04:29;;;;;;;2.43;1.97;;;;;;;17.18;52.71;95672.59;5072288;28;20184;-70
2021/10/03 05:06:54;;;;;;;2.20;2.00;;;;;;;17.21;52.25;95666.75;5071868;28;20264;-70
2021/10/03 05:09:20;;;;;;;1.97;1.80;;;;;;;17.25;52.25;95675.66;5053914;28;20584;-70
2021/10/03 05:11:46;;;;;;;2.17;1.97;;;;;;;17.26;52.24;95684.38;5071559;28;20181;-70
2021/10/03 05:14:11;;;;;;;1.90;1.80;;;;;;;17.28;51.97;95671.63;5072330;28;20184;-70
2021/10/03 05:16:37;;;;;;;1.80;1.70;;;;;;;17.23;52.55;95669.84;5072193;28;20201;-70
2021/10/03 05:19:04;;;;;;;3.27;1.87;;;;;;;17.20;52.61;95664.38;5072031;28;20280;-70
2021/10/03 05:21:30;;;;;;;2.90;1.77;;;;;;;17.17;53.37;95675.53;5058022;28;20236;-70
2021/10/03 05:23:56;;;;;;;1.83;1.73;;;;;;;17.35;53.09;95680.75;5076177;28;20189;-70
2021/10/03 05:26:22;;;;;;;2.10;1.90;;;;;;;17.32;52.48;95668.09;5076011;28;20187;-71
2021/10/03 05:28:47;;;;;;;1.83;1.70;;;;;;;17.39;52.38;95680.91;5076261;28;20189;-71
2021/10/03 05:31:12;;;;;;;2.10;1.90;;;;;;;17.40;52.25;95671.91;5076295;28;20176;-71
2021/10/03 05:33:39;;;;;;;2.03;1.93;;;;;;;17.44;52.30;95684.25;5076029;28;20212;-70
2021/10/03 05:36:05;;;;;;;1.93;1.83;;;;;;;17.45;52.17;95666.50;5057186;28;20284;-70
2021/10/03 05:38:31;;;;;;;2.07;1.90;;;;;;;17.42;52.32;95673.19;5076068;28;20178;-70
2021/10/03 05:40:56;;;;;;;3.70;1.90;;;;;;;17.28;53.20;95696.25;5076017;28;20320;-70
2021/10/03 05:43:21;;;;;;;2.77;1.80;;;;;;;17.44;52.38;95692.19;5076126;28;20238;-69
2021/10/03 05:45:47;;;;;;;1.70;1.60;;;;;;;17.44;51.94;95675.53;5075666;28;20188;-69
2021/10/03 05:48:12;;;;;;;1.80;1.70;;;;;;;17.53;51.93;95676.41;5058075;28;20597;-69
2021/10/03 05:50:38;;;;;;;2.00;1.90;;;;;;;17.43;52.61;95688.00;5075449;28;20661;-68
2021/10/03 05:53:04;;;;;;;2.30;2.10;;;;;;;17.54;52.31;95690.44;5057391;28;20258;-69
2021/10/03 05:55:30;;;;;;;2.70;1.80;;;;;;;17.67;52.09;95690.44;5075581;28;20276;-69
2021/10/03 05:57:56;;;;;;;4.17;2.03;;;;;;;17.59;52.37;95680.50;5057919;28;20177;-69
2021/10/03 06:00:21;;;;;;;2.17;2.00;;;;;;;17.61;52.28;95664.34;5075433;28;20234;-69
2021/10/03 06:02:46;;;;;;;2.13;1.93;;;;;;;17.52;52.43;95676.69;5074752;28;20215;-69
2021/10/03 06:05:12;;;;;;;1.77;1.67;;;;;;;17.51;52.94;95675.91;5057216;28;20224;-69
2021/10/03 06:07:37;;;;;;;2.10;1.90;;;;;;;17.44;53.21;95678.19;5075230;28;20185;-69
2021/10/03 06:10:04;;;;;;;2.13;1.90;;;;;;;17.52;53.01;95680.13;5075265;28;20653;-70
2021/10/03 06:12:29;;;;;;;3.00;2.10;;;;;;;17.70;52.60;95667.84;5075169;28;20185;-69
2021/10/03 06:14:54;;;;;;;2.30;2.10;;;;;;;17.66;52.34;95674.84;5075347;28;20181;-69
2021/10/03 06:17:20;;;;;;;5.07;2.40;;;;;;;17.66;52.38;95667.69;5074583;28;20287;-69
2021/10/03 06:19:45;;;;;;;2.63;2.00;;;;;;;17.65;52.48;95676.72;5075051;28;20216;-66
2021/10/03 06:22:13;;;;;;;7.15;1.90;;;;;;;17.98;63.89;95681.81;5057096;28;20181;-68
2021/10/03 06:24:38;;;;;;;2.27;1.80;;;;;;;18.48;56.40;95683.25;5074720;28;20196;-68
2021/10/03 06:27:04;;;;;;;2.20;2.00;;;;;;;18.72;53.17;95684.81;5074714;28;20217;-69
2021/10/03 06:29:29;;;;;;;2.37;1.93;;;;;;;18.97;51.23;95692.13;5074606;28;20207;-69
2021/10/03 06:31:54;;;;;;;2.25;2.00;;;;;;;19.18;50.14;95677.19;5074125;28;20185;-69
2021/10/03 06:34:20;;;;;;;1.90;1.80;;;;;;;19.24;49.24;95670.66;5073814;28;20185;-68
2021/10/03 06:36:45;;;;;;;1.83;1.73;;;;;;;19.60;48.88;95686.41;5074146;28;20212;-66
2021/10/03 06:39:10;;;;;;;2.55;2.00;;;;;;;19.69;47.71;95660.59;5074840;28;20630;-67
2021/10/03 06:41:36;;;;;;;2.60;1.70;;;;;;;19.75;47.86;95677.19;5074863;28;20259;-70
2021/10/03 06:44:01;;;;;;;2.22;2.03;;;;;;;19.88;46.43;95668.28;5056400;28;20177;-68
2021/10/03 06:46:27;;;;;;;1.80;1.70;;;;;;;19.88;46.51;95649.66;5074685;28;20720;-70
2021/10/03 06:48:52;;;;;;;1.67;1.58;;;;;;;19.90;46.44;95671.41;5056759;28;20274;-70
2021/10/03 06:51:18;;;;;;;1.70;1.60;;;;;;;20.04;46.89;95668.59;5074105;28;20243;-71
2021/10/03 06:53:43;;;;;;;1.70;1.60;;;;;;;20.07;46.86;95668.72;5074475;28;20192;-70
2021/10/03 06:56:08;;;;;;;1.90;1.80;;;;;;;20.05;46.88;95678.16;5074286;28;20879;-71
2021/10/03 06:58:35;;;;;;;1.95;1.85;;;;;;;19.88;46.92;95670.94;5074469;28;20199;-71
2021/10/03 07:01:01;;;;;;;2.03;1.92;;;;;;;19.89;47.03;95685.81;5074334;28;20219;-71
2021/10/03 07:03:26;;;;;;;2.95;1.85;;;;;;;19.85;47.33;95688.28;5056751;28;20186;-72
2021/10/03 07:05:51;;;;;;;2.15;1.75;;;;;;;19.82;47.46;95669.53;5074238;28;20239;-71
2021/10/03 07:08:17;;;;;;;2.05;1.80;;;;;;;19.82;47.88;95686.28;5074259;28;20276;-69
2021/10/03 07:10:42;;;;;;;2.13;1.90;;;;;;;19.94;47.75;95685.66;5073395;28;20675;-70
2021/10/03 07:13:11;;;;;;;2.90;2.10;;;;;;;19.96;47.93;95685.31;5073508;28;20185;-69
2021/10/03 07:15:36;;;;;;;2.10;1.90;;;;;;;19.90;48.39;95692.69;5074225;28;20217;-69
2021/10/03 07:18:02;;;;;;;2.22;1.70;;;;;;;19.92;48.22;95685.19;5055854;28;20212;-69
2021/10/03 07:20:27;;;;;;;2.67;1.80;;;;;;;19.73;49.09;95690.78;5073962;28;20280;-70
2021/10/03 07:22:53;;;;;;;2.10;1.75;;;;;;;19.69;49.26;95707.66;5073419;28;20177;-70
2021/10/03 07:25:18;;;;;;;2.03;1.80;;;;;;;19.76;49.52;95706.13;5074187;28;20180;-71
2021/10/03 07:27:43;;;;;;;2.70;2.50;;;;;;;19.73;49.82;95684.69;5073930;28;20200;-70
2021/10/03 07:30:09;;;;;;;2.58;2.05;;;;;;;19.56;50.58;95695.31;5074132;28;20589;-71
2021/10/03 07:32:35;;;;;;;2.42;2.22;;;;;;;19.63;51.15;95704.38;5055561;28;20246;-71
2021/10/03 07:35:00;;;;;;;3.50;1.90;;;;;;;19.75;50.96;95701.13;5063570;28;20186;-70
2021/10/03 07:37:26;;;;;;;2.85;1.67;;;;;;;19.78;51.00;95701.25;5055783;28;20511;-68
2021/10/03 07:39:52;;;;;;;1.90;1.80;;;;;;;19.70;51.83;95688.75;5073558;28;20243;-70
2021/10/03 07:42:17;;;;;;;2.67;2.03;;;;;;;19.79;51.42;95691.41;5072749;28;20197;-69
2021/10/03 07:44:43;;;;;;;1.95;1.85;;;;;;;19.90;51.25;95698.00;5072928;28;20201;-68
2021/10/03 07:47:08;;;;;;;2.17;1.90;;;;;;;20.13;50.69;95702.06;5073756;28;20185;-72
2021/10/03 07:49:33;;;;;;;1.95;1.50;;;;;;;20.10;50.88;95693.94;5073394;28;20652;-70
2021/10/03 07:51:59;;;;;;;1.80;1.70;;;;;;;20.13;50.38;95694.09;5055506;28;20192;-69
2021/10/03 07:54:24;;;;;;;2.13;1.92;;;;;;;20.13;50.52;95707.41;5072964;28;20702;-71
2021/10/03 07:56:50;;;;;;;2.10;1.90;;;;;;;20.29;50.36;95703.16;5073148;28;20212;-70
2021/10/03 07:59:15;;;;;;;1.80;1.70;;;;;;;20.55;49.85;95705.06;5072383;28;20188;-70
2021/10/03 08:01:40;;;;;;;1.98;1.80;;;;;;;20.46;49.91;95697.06;5072718;28;20185;-71
2021/10/03 08:04:06;;;;;;;3.05;2.30;;;;;;;20.49;49.89;95688.47;5072847;28;20633;-71
2021/10/03 08:06:32;;;;;;;1.63;1.52;;;;;;;20.36;50.90;95688.63;5054490;28;20549;-70
2021/10/03 08:08:58;;;;;;;1.75;1.65;;;;;;;20.42;50.67;95690.03;5054781;28;20193;-69
2021/10/03 08:11:26;;;;;;;1.92;1.75;;;;;;;20.35;51.34;95687.84;5072343;28;20189;-72
2021/10/03 08:13:52;;;;;;;1.77;1.67;;;;;;;20.43;50.87;95692.38;5073079;28;20194;-70
2021/10/03 08:16:21;;;;;;;2.03;1.75;;;;;;;20.47;51.12;95687.19;5072911;28;20219;-72
2021/10/03 08:18:47;;;;;;;1.88;1.77;;;;;;;20.44;51.50;95679.84;5072479;28;20196;-71
2021/10/03 08:21:13;;;;;;;2.60;1.85;;;;;;;20.41;51.64;95683.91;5055082;28;20650;-71
2021/10/03 08:23:39;;;;;;;1.60;1.50;;;;;;;20.57;51.25;95684.97;5072343;28;20295;-71
2021/10/03 08:26:04;;;;;;;2.03;1.67;;;;;;;20.82;51.41;95679.91;5072440;28;20189;-71
2021/10/03 08:28:30;;;;;;;3.80;1.90;;;;;;;20.66;52.66;95680.44;5054386;28;20626;-68
2021/10/03 08:30:56;;;;;;;4.68;1.80;;;;;;;20.70;52.58;95678.69;5072823;28;20184;-66
2021/10/03 08:33:21;;;;;;;2.53;2.20;;;;;;;20.79;52.31;95678.66;5054577;28;20668;-68
2021/10/03 08:35:47;;;;;;;1.88;1.77;;;;;;;20.79;51.52;95676.00;5072466;28;20229;-70
2021/10/03 08:38:12;;;;;;;1.80;1.70;;;;;;;20.99;50.54;95685.19;5071906;28;20209;-71
2021/10/03 08:40:38;;;;;;;2.10;1.90;;;;;;;21.13;49.89;95694.53;5054487;28;20188;-71
2021/10/03 08:43:07;;;;;;;2.20;1.60;;;;;;;21.15;49.73;95702.22;5071295;28;20189;-71
2021/10/03 08:45:43;;;;;;;2.42;2.22;;;;;;;21.30;49.70;95703.56;5054379;28;20522;-71
2021/10/03 08:48:13;;;;;;;2.05;1.70;;;;;;;21.33;49.56;95701.06;5072575;28;20203;-71
2021/10/03 08:50:40;;;;;;;1.70;1.60;;;;;;;21.16;50.26;95703.81;5072276;28;20648;-70
2021/10/03 08:53:05;;;;;;;1.60;1.50;;;;;;;21.15;50.49;95700.34;5072498;28;20189;-71
2021/10/03 08:55:31;;;;;;;1.88;1.75;;;;;;;21.34;50.01;95713.28;5054063;28;20251;-72
2021/10/03 08:57:56;;;;;;;3.63;1.60;;;;;;;21.60;49.47;95715.03;5072551;28;20606;-72
2021/10/03 09:00:23;;;;;;;1.95;1.85;;;;;;;21.60;49.43;95707.03;5072408;28;20185;-72
2021/10/03 09:03:07;;;;;;;3.35;1.90;;;;;;;21.52;50.23;95696.09;5072645;28;20318;-72
2021/10/03 09:05:48;;;;;;;2.30;2.10;;;;;;;21.51;50.47;95721.19;5071623;28;20541;-71
2021/10/03 09:08:28;;;;;;;2.05;1.65;;;;;;;21.24;50.97;95702.97;5072219;28;20177;-72
2021/10/03 09:10:59;;;;;;;2.95;1.88;;;;;;;21.23;50.58;95714.75;5072312;28;20260;-71
2021/10/03 09:13:30;;;;;;;1.88;1.77;;;;;;;21.14;50.29;95712.09;5053651;28;20204;-72
2021/10/03 09:16:09;;;;;;;1.95;1.83;;;;;;;21.28;49.65;95708.47;5071808;28;20220;-72
2021/10/03 09:18:47;;;;;;;1.80;1.70;;;;;;;20.99;49.56;95703.84;5072236;28;20173;-72
2021/10/03 09:21:29;;;;;;;1.98;1.80;;;;;;;20.85;50.10;95705.91;5072387;28;20540;-72
2021/10/03 09:23:58;;;;;;;1.55;1.45;;;;;;;21.02;49.75;95700.53;5064425;28;20538;-72
2021/10/03 09:26:25;;;;;;;1.65;1.55;;;;;;;21.14;49.57;95706.78;5053783;28;20199;-71
2021/10/03 09:28:50;;;;;;;1.63;1.52;;;;;;;21.08;49.92;95697.38;5054445;28;20659;-73
2021/10/03 09:31:17;;;;;;;1.83;1.73;;;;;;;21.30;49.52;95700.91;5054064;28;20178;-72
2021/10/03 09:34:23;;;;;;;1.67;1.58;;;;;;;21.41;49.28;95702.09;5071122;28;20268;-72
2021/10/03 09:36:48;;;;;;;3.42;1.90;;;;;;;21.43;49.25;95703.34;5065553;28;20256;-73
2021/10/03 09:39:13;;;;;;;2.03;1.83;;;;;;;21.48;49.18;95699.72;5071874;28;20256;-71
2021/10/03 09:41:43;;;;;;;1.77;1.67;;;;;;;21.55;48.98;95698.13;5071774;28;20611;-71
2021/10/03 09:44:13;;;;;;;1.60;1.50;;;;;;;21.60;48.82;95688.34;5072268;28;20178;-71
2021/10/03 09:46:51;;;;;;;2.22;1.88;;;;;;;21.72;48.57;95699.13;5071827;28;20192;-71
2021/10/03 09:49:19;;;;;;;3.20;1.98;;;;;;;21.79;48.26;95697.47;5072185;28;20208;-71
2021/10/03 09:51:49;;;;;;;6.93;2.72;;;;;;;21.67;48.36;95685.97;5071781;28;20181;-72
2021/10/03 09:54:17;;;;;;;2.97;2.50;;;;;;;21.58;49.09;95694.00;5071809;28;20220;-74
2021/10/03 09:56:43;;;;;;;2.38;2.17;;;;;;;21.67;49.34;95692.09;5071987;28;20266;-69
2021/10/03 09:59:09;;;;;;;2.20;1.98;;;;;;;21.73;49.73;95698.81;5072337;28;20189;-70
2021/10/03 10:01:46;;;;;;;2.08;1.60;;;;;;;21.52;50.47;95703.28;5071857;28;20608;-71
2021/10/03 10:04:15;;;;;;;2.28;1.88;;;;;;;21.47;51.14;95698.94;5072051;28;20189;-71
2021/10/03 10:06:44;;;;;;;1.70;1.60;;;;;;;21.61;51.19;95701.38;5074383;28;20193;-71
2021/10/03 10:09:12;;;;;;;1.77;1.67;;;;;;;21.53;51.53;95704.88;5075153;28;20312;-69
2021/10/03 10:11:57;;;;;;;1.73;1.63;;;;;;;21.45;51.60;95701.16;5074725;28;20193;-70
2021/10/03 10:14:36;;;;;;;1.90;1.70;;;;;;;21.54;51.24;95709.88;5076182;28;20219;-70
2021/10/03 10:17:30;;;;;;;1.75;1.65;;;;;;;21.80;50.60;95704.38;5075186;28;20205;-71
2021/10/03 10:20:00;;;;;;;1.73;1.50;;;;;;;22.14;49.86;95705.25;5067721;28;20638;-72
2021/10/03 10:22:28;;;;;;;1.60;1.50;;;;;;;22.19;50.21;95695.16;5075005;28;20698;-72
2021/10/03 10:24:55;;;;;;;3.80;1.60;;;;;;;22.36;49.88;95696.91;5075166;28;20209;-72
2021/10/03 10:27:21;;;;;;;1.67;1.58;;;;;;;22.58;49.73;95703.78;5074883;28;20187;-72
2021/10/03 10:30:10;;;;;;;2.13;2.00;;;;;;;22.84;48.95;95690.97;5075332;28;20260;-71
2021/10/03 10:32:54;;;;;;;1.70;1.60;;;;;;;23.16;48.73;95695.47;5073378;28;20197;-72
2021/10/03 10:35:22;;;;;;;2.47;1.45;;;;;;;23.20;48.37;95695.56;5075019;28;20185;-72
2021/10/03 10:37:56;;;;;;;2.75;1.88;;;;;;;23.27;48.14;95689.66;5071968;28;20551;-72
2021/10/03 10:40:22;;;;;;;2.30;1.75;;;;;;;23.19;48.21;95691.31;5073581;28;20577;-71
2021/10/03 10:42:52;;;;;;;1.80;1.70;;;;;;;23.11;48.83;95689.56;5073855;28;20203;-71
2021/10/03 10:45:26;;;;;;;1.90;1.80;;;;;;;22.97;49.17;95689.88;5074304;28;20257;-72
2021/10/03 10:48:10;;;;;;;2.20;1.60;;;;;;;23.31;48.12;95694.00;5073948;28;20188;-71
2021/10/03 10:50:54;;;;;;;1.70;1.60;;;;;;;23.50;47.75;95693.50;5073825;28;20184;-72
2021/10/03 10:53:34;;;;;;;4.75;2.53;;;;;;;23.57;47.57;95694.47;5056372;28;20193;-72
2021/10/03 10:56:08;;;;;;;7.05;2.97;;;;;;;23.57;47.20;95699.81;5074536;28;20208;-72
2021/10/03 10:58:52;;;;;;;5.22;3.10;;;;;;;23.42;48.41;95687.09;5073937;28;20252;-72
2021/10/03 11:01:18;;;;;;;3.47;2.63;;;;;;;23.37;48.35;95698.03;5074951;28;20323;-72
2021/10/03 11:03:44;;;;;;;2.55;1.95;;;;;;;23.38;47.59;95696.91;5074186;28;20632;-72
2021/10/03 11:06:32;;;;;;;3.63;1.80;;;;;;;23.44;47.35;95687.56;5074557;28;20286;-72
2021/10/03 11:08:58;;;;;;;2.17;1.67;;;;;;;23.53;47.32;95693.59;5052868;28;20209;-71
2021/10/03 11:11:34;;;;;;;1.95;1.83;;;;;;;23.66;46.67;95693.59;5069388;28;20189;-71
2021/10/03 11:14:08;;;;;;;2.00;1.90;;;;;;;23.70;46.73;95689.09;5074057;28;20188;-72
2021/10/03 11:16:43;;;;;;;4.13;1.52;;;;;;;23.50;47.67;95682.78;5073264;28;20201;-72
2021/10/03 11:19:24;;;;;;;2.75;2.45;;;;;;;23.45;48.03;95672.28;5073951;28;20201;-71
2021/10/03 11:22:03;;;;;;;1.70;1.60;;;;;;;23.56;48.49;95686.81;5073606;28;20552;-72
2021/10/03 11:24:40;;;;;;;1.80;1.70;;;;;;;23.45;48.69;95685.66;5072095;28;20715;-72
2021/10/03 11:27:12;;;;;;;2.10;1.77;;;;;;;23.39;48.76;95679.75;5067424;28;20205;-71
2021/10/03 11:29:43;;;;;;;2.13;1.92;;;;;;;23.48;49.03;95682.34;5073154;28;20196;-72
2021/10/03 11:32:21;;;;;;;2.00;1.90;;;;;;;23.53;49.46;95685.56;5055627;28;20660;-71
2021/10/03 11:34:52;;;;;;;1.92;1.83;;;;;;;23.58;48.61;95676.53;5072687;28;20181;-72
2021/10/03 11:37:26;;;;;;;3.83;1.70;;;;;;;23.67;48.77;95682.56;5072847;28;20205;-71